Time;durP1;ratioP1;P1;durP2;ratioP2;P2;SDS_P1;SDS_P2;PMS_P1;PMS_P2;Temp;Humidity;BMP_temperature;BMP_pressure;BME280_temperature;BME280_humidity;BME280_pressure;Samples;Min_cycle;Max_cycle;Signal;HPM_P1;HPM_P2
2022/09/14 00:02:23;;;;;;;10.37;9.10;;;22.50;99.90;;;;;;4995087;28;20206;-66
2022/09/14 00:04:50;;;;;;;12.77;10.27;;;22.50;99.90;;;;;;4998537;28;20289;-65
2022/09/14 00:07:15;;;;;;;10.40;9.40;;;22.40;99.90;;;;;;4995037;28;20173;-65
2022/09/14 00:09:42;;;;;;;16.33;9.53;;;22.50;99.90;;;;;;4995641;28;21486;-65
2022/09/14 00:12:09;;;;;;;11.20;10.10;;;22.40;99.90;;;;;;4995935;28;20174;-65
2022/09/14 00:14:35;;;;;;;13.10;10.37;;;22.40;99.90;;;;;;4995814;28;20445;-65
2022/09/14 00:17:01;;;;;;;13.20;9.47;;;22.30;99.90;;;;;;4997845;28;20434;-65
2022/09/14 00:19:27;;;;;;;11.87;9.30;;;22.30;99.90;;;;;;4996979;28;20457;-65
2022/09/14 00:21:55;;;;;;;11.10;10.00;;;22.40;99.90;;;;;;4994022;28;20184;-65
2022/09/14 00:24:22;;;;;;;12.53;9.60;;;22.30;99.90;;;;;;4993121;28;20421;-66
2022/09/14 00:26:49;;;;;;;12.47;10.20;;;22.30;99.90;;;;;;4995043;28;20428;-65
2022/09/14 00:29:14;;;;;;;11.23;9.97;;;22.30;99.90;;;;;;4996311;28;20417;-65
2022/09/14 00:31:40;;;;;;;10.30;9.00;;;22.30;99.90;;;;;;4996880;28;21018;-66
2022/09/14 00:34:07;;;;;;;10.53;9.53;;;22.30;99.90;;;;;;4998013;28;20186;-66
2022/09/14 00:36:38;;;;;;;10.53;9.33;;;22.30;99.90;;;;;;4996842;28;20546;-65
2022/09/14 00:39:04;;;;;;;10.30;8.90;;;22.30;99.90;;;;;;4997044;28;20452;-65
2022/09/14 00:41:33;;;;;;;10.00;8.10;;;22.30;99.90;;;;;;4995793;28;20451;-66
2022/09/14 00:44:02;;;;;;;10.13;8.37;;;22.30;99.90;;;;;;4996252;28;20177;-66
2022/09/14 00:46:34;;;;;;;8.97;8.17;;;22.30;99.90;;;;;;4995048;28;20912;-66
2022/09/14 00:49:01;;;;;;;10.80;8.70;;;22.30;99.90;;;;;;4993941;28;21017;-66
2022/09/14 00:51:30;;;;;;;11.83;7.87;;;22.30;99.90;;;;;;4994245;28;20435;-66
2022/09/14 00:53:56;;;;;;;10.50;9.40;;;22.20;99.90;;;;;;4994097;28;20440;-65
2022/09/14 00:56:21;;;;;;;11.93;8.50;;;22.20;99.90;;;;;;4995225;28;20428;-66
2022/09/14 00:58:50;;;;;;;13.10;8.80;;;22.20;99.90;;;;;;4998240;28;20537;-66
2022/09/14 01:01:16;;;;;;;11.60;9.30;;;22.10;99.90;;;;;;4997871;28;20224;-65
2022/09/14 01:03:41;;;;;;;9.50;8.53;;;22.10;99.90;;;;;;4995534;28;20936;-65
2022/09/14 01:06:38;;;;;;;10.40;9.30;;;22.10;99.90;;;;;;4996617;28;20200;-66
2022/09/14 01:09:24;;;;;;;15.93;10.27;;;22.10;99.90;;;;;;4995462;28;20867;-65
2022/09/14 01:12:17;;;;;;;10.77;9.70;;;22.00;99.90;;;;;;4994282;28;20455;-66
2022/09/14 01:15:02;;;;;;;18.83;10.50;;;22.00;99.90;;;;;;4998019;28;20471;-66
2022/09/14 01:17:46;;;;;;;12.27;10.80;;;22.00;99.90;;;;;;4998969;28;20493;-66
2022/09/14 01:20:38;;;;;;;14.97;11.60;;;22.10;99.90;;;;;;4999746;28;20533;-66
2022/09/14 01:23:46;;;;;;;18.27;13.00;;;22.00;99.90;;;;;;4999323;28;20439;-65
2022/09/14 01:26:35;;;;;;;14.20;12.67;;;21.90;99.90;;;;;;4996762;28;20456;-66
2022/09/14 01:29:27;;;;;;;16.30;12.63;;;21.90;99.90;;;;;;5000171;28;20573;-66
2022/09/14 01:32:22;;;;;;;14.67;13.17;;;21.80;99.90;;;;;;4984742;28;20947;-66
2022/09/14 01:34:56;;;;;;;14.90;12.60;;;21.80;99.90;;;;;;4960301;28;20928;-66
2022/09/14 01:37:27;;;;;;;15.03;13.20;;;21.80;99.90;;;;;;5001935;28;20468;-65
2022/09/14 01:40:02;;;;;;;15.40;13.80;;;21.60;99.90;;;;;;4995986;28;20827;-65
2022/09/14 01:42:30;;;;;;;16.70;13.93;;;21.30;99.90;;;;;;4984408;28;20423;-65
2022/09/14 01:44:59;;;;;;;17.17;12.57;;;21.20;99.90;;;;;;4999703;28;20730;-65
2022/09/14 01:47:48;;;;;;;15.27;13.67;;;21.20;99.90;;;;;;4999642;28;20430;-65
2022/09/14 01:50:19;;;;;;;16.07;14.40;;;21.20;99.90;;;;;;5000023;28;20513;-65
2022/09/14 01:52:58;;;;;;;16.20;13.73;;;21.20;99.90;;;;;;4996501;28;21098;-65
2022/09/14 01:55:42;;;;;;;18.23;15.30;;;21.20;99.90;;;;;;4998372;28;20440;-65
2022/09/14 01:58:30;;;;;;;15.00;13.27;;;21.20;99.90;;;;;;4999052;28;20827;-65
2022/09/14 02:00:58;;;;;;;13.67;12.30;;;21.20;99.90;;;;;;4994889;28;20456;-65
2022/09/14 02:03:32;;;;;;;14.80;13.30;;;21.20;99.90;;;;;;5000273;28;20417;-65
2022/09/14 02:06:03;;;;;;;15.53;12.63;;;21.20;99.90;;;;;;4998248;28;20633;-65
2022/09/14 02:08:29;;;;;;;17.57;12.80;;;21.20;99.90;;;;;;4997176;28;20484;-65
2022/09/14 02:10:57;;;;;;;14.13;12.47;;;21.20;99.90;;;;;;4997527;28;20497;-65
2022/09/14 02:13:23;;;;;;;15.13;13.53;;;21.30;99.90;;;;;;5000291;28;20417;-66
2022/09/14 02:15:49;;;;;;;16.60;13.17;;;21.30;99.90;;;;;;4997933;28;20444;-65
2022/09/14 02:18:15;;;;;;;14.10;12.57;;;21.30;99.90;;;;;;5000402;28;20583;-65
2022/09/14 02:20:52;;;;;;;16.97;13.13;;;21.20;99.90;;;;;;4999347;28;20263;-65
2022/09/14 02:23:18;;;;;;;18.10;15.60;;;21.20;99.90;;;;;;4999624;28;20177;-65
2022/09/14 02:25:45;;;;;;;16.53;14.43;;;21.20;99.90;;;;;;4996051;28;20743;-65
2022/09/14 02:28:10;;;;;;;19.60;15.47;;;21.10;99.90;;;;;;4999108;28;20432;-65
2022/09/14 02:30:44;;;;;;;17.83;15.50;;;21.10;99.90;;;;;;4999261;28;20429;-65
2022/09/14 02:33:26;;;;;;;16.00;14.30;;;21.10;99.90;;;;;;4996524;28;20204;-65
2022/09/14 02:35:59;;;;;;;15.93;14.37;;;21.20;99.90;;;;;;4998646;28;20460;-65
2022/09/14 02:38:33;;;;;;;18.43;14.60;;;21.20;99.90;;;;;;4998961;28;20478;-66
2022/09/14 02:41:20;;;;;;;20.20;14.60;;;21.20;99.90;;;;;;4996947;28;20453;-66
2022/09/14 02:43:58;;;;;;;15.33;13.83;;;21.20;99.90;;;;;;4978098;28;20433;-66
2022/09/14 02:46:56;;;;;;;17.17;14.30;;;21.20;99.90;;;;;;4998385;28;20690;-65
2022/09/14 02:49:33;;;;;;;14.87;13.27;;;21.10;99.90;;;;;;4997631;28;20493;-66
2022/09/14 02:52:17;;;;;;;14.97;13.17;;;21.10;99.90;;;;;;4998407;28;20519;-66
2022/09/14 02:54:52;;;;;;;18.77;14.70;;;21.10;99.90;;;;;;4997050;28;20936;-66
2022/09/14 02:57:17;;;;;;;17.43;13.90;;;21.10;99.90;;;;;;4996519;28;20792;-66
2022/09/14 02:59:43;;;;;;;15.63;13.87;;;21.10;99.90;;;;;;5000264;28;20736;-66
2022/09/14 03:02:08;;;;;;;13.87;11.90;;;21.10;99.90;;;;;;4997225;28;20494;-66
2022/09/14 03:04:34;;;;;;;14.40;12.90;;;21.10;99.90;;;;;;4996282;28;20213;-66
2022/09/14 03:07:00;;;;;;;16.57;12.70;;;21.10;99.90;;;;;;4998930;28;20227;-66
2022/09/14 03:09:25;;;;;;;16.77;15.07;;;21.10;99.90;;;;;;4998711;28;20182;-66
2022/09/14 03:11:51;;;;;;;14.73;12.90;;;21.10;99.90;;;;;;4996654;28;20221;-66
2022/09/14 03:14:16;;;;;;;15.70;13.97;;;21.10;99.90;;;;;;4998694;28;20207;-66
2022/09/14 03:16:42;;;;;;;13.53;12.20;;;21.10;99.90;;;;;;4999161;28;20251;-66
2022/09/14 03:19:09;;;;;;;14.43;12.77;;;21.10;99.90;;;;;;4998304;28;20401;-66
2022/09/14 03:21:37;;;;;;;19.67;15.37;;;21.10;99.90;;;;;;4993461;28;20447;-66
2022/09/14 03:24:02;;;;;;;16.20;13.50;;;21.10;99.90;;;;;;4993234;28;20610;-65
2022/09/14 03:26:28;;;;;;;17.60;14.23;;;21.10;99.90;;;;;;4995994;28;20432;-65
2022/09/14 03:28:56;;;;;;;19.03;14.73;;;21.10;99.90;;;;;;4998853;28;20186;-66
2022/09/14 03:31:21;;;;;;;18.87;14.13;;;21.10;99.90;;;;;;4999032;28;20200;-66
2022/09/14 03:33:53;;;;;;;18.60;13.67;;;21.10;99.90;;;;;;4996260;28;20428;-66
2022/09/14 03:36:20;;;;;;;15.07;13.23;;;21.10;99.90;;;;;;4996301;28;20807;-65
2022/09/14 03:38:52;;;;;;;19.03;13.90;;;21.10;99.90;;;;;;4994900;28;20858;-66
2022/09/14 03:41:20;;;;;;;17.10;14.60;;;21.10;99.90;;;;;;4997780;28;20433;-66
2022/09/14 03:43:46;;;;;;;24.40;17.07;;;21.20;99.90;;;;;;4993882;28;20507;-65
2022/09/14 03:46:14;;;;;;;18.40;14.80;;;21.20;99.90;;;;;;4993586;28;20803;-65
2022/09/14 03:48:40;;;;;;;18.63;15.30;;;21.10;99.90;;;;;;4995423;28;20564;-65
2022/09/14 03:51:08;;;;;;;16.83;14.80;;;21.10;99.90;;;;;;4999002;28;20535;-65
2022/09/14 03:53:34;;;;;;;17.50;14.20;;;21.00;99.90;;;;;;4996840;28;20453;-65
2022/09/14 03:55:59;;;;;;;17.67;13.63;;;20.90;99.90;;;;;;4999478;28;20456;-66
2022/09/14 03:58:25;;;;;;;18.07;15.20;;;20.90;99.90;;;;;;4996407;28;20631;-66
2022/09/14 04:00:51;;;;;;;16.83;14.90;;;20.80;99.90;;;;;;4995648;28;20208;-65
2022/09/14 04:03:17;;;;;;;18.43;13.90;;;20.80;99.90;;;;;;4998498;28;20502;-66
2022/09/14 04:05:44;;;;;;;15.83;14.20;;;20.80;99.90;;;;;;4993979;28;20201;-65
2022/09/14 04:08:10;;;;;;;22.80;14.80;;;20.80;99.90;;;;;;4996810;28;20173;-65
2022/09/14 04:10:38;;;;;;;15.93;14.13;;;20.70;99.90;;;;;;4996959;28;20435;-66
2022/09/14 04:13:04;;;;;;;19.70;15.67;;;20.70;99.90;;;;;;4997006;28;20432;-65
2022/09/14 04:15:29;;;;;;;18.23;14.40;;;20.80;99.90;;;;;;4994403;28;20464;-65
2022/09/14 04:17:55;;;;;;;19.00;14.50;;;20.80;99.90;;;;;;4997373;28;20213;-65
2022/09/14 04:20:20;;;;;;;16.13;13.80;;;20.80;99.90;;;;;;4997950;28;20213;-66
2022/09/14 04:22:46;;;;;;;19.43;14.80;;;20.80;99.90;;;;;;4998744;28;20567;-66
2022/09/14 04:25:12;;;;;;;16.47;13.90;;;20.80;99.90;;;;;;4994524;28;20392;-66
2022/09/14 04:27:37;;;;;;;16.67;14.97;;;20.90;99.90;;;;;;4995340;28;20648;-66
2022/09/14 04:30:04;;;;;;;16.53;14.80;;;20.90;99.90;;;;;;4993396;28;20263;-67
2022/09/14 04:32:30;;;;;;;15.77;14.17;;;20.90;99.90;;;;;;4998444;28;20189;-66
2022/09/14 04:34:56;;;;;;;16.50;14.27;;;20.90;99.90;;;;;;4993501;28;20471;-66
2022/09/14 04:37:21;;;;;;;14.10;12.60;;;20.90;99.90;;;;;;4997859;28;20674;-66
2022/09/14 04:39:47;;;;;;;17.30;15.50;;;21.00;99.90;;;;;;4996587;28;20196;-66
2022/09/14 04:42:12;;;;;;;18.10;13.07;;;21.00;99.90;;;;;;4996638;28;20185;-66
2022/09/14 04:44:38;;;;;;;15.23;13.53;;;21.00;99.90;;;;;;4995279;28;20775;-66
2022/09/14 04:47:04;;;;;;;15.87;14.23;;;21.00;99.90;;;;;;4997095;28;20205;-66
2022/09/14 04:49:30;;;;;;;17.93;14.97;;;21.00;99.90;;;;;;4996880;28;20435;-66
2022/09/14 04:51:55;;;;;;;18.37;15.00;;;20.90;99.90;;;;;;4998218;28;20646;-66
2022/09/14 04:54:21;;;;;;;18.17;16.30;;;20.90;99.90;;;;;;5002125;28;20218;-66
2022/09/14 04:56:46;;;;;;;18.67;15.73;;;20.90;99.90;;;;;;4999460;28;20204;-66
2022/09/14 04:59:14;;;;;;;19.43;15.90;;;20.90;99.90;;;;;;4998808;28;20299;-66
2022/09/14 05:01:42;;;;;;;19.43;17.37;;;21.00;99.90;;;;;;5001017;28;20851;-66
2022/09/14 05:04:08;;;;;;;18.53;16.20;;;20.90;99.90;;;;;;5001025;28;20439;-66
2022/09/14 05:06:37;;;;;;;19.83;17.30;;;20.80;99.90;;;;;;4996788;28;20424;-66
2022/09/14 05:09:05;;;;;;;19.33;16.57;;;20.80;99.90;;;;;;5000425;28;20503;-66
2022/09/14 05:11:33;;;;;;;18.50;16.53;;;20.80;99.90;;;;;;5001362;28;20431;-66
2022/09/14 05:14:00;;;;;;;18.67;16.60;;;20.70;99.90;;;;;;4999505;28;20424;-66
2022/09/14 05:16:35;;;;;;;19.20;17.13;;;20.70;99.90;;;;;;4997119;28;20474;-66
2022/09/14 05:19:04;;;;;;;19.13;16.70;;;20.70;99.90;;;;;;4998109;28;20492;-66
2022/09/14 05:21:31;;;;;;;18.87;16.87;;;20.70;99.90;;;;;;5001376;28;20421;-66
2022/09/14 05:24:02;;;;;;;19.70;16.80;;;20.70;99.90;;;;;;4996423;28;20878;-65
2022/09/14 05:26:30;;;;;;;18.67;15.67;;;20.80;99.90;;;;;;4985231;28;20863;-65
2022/09/14 05:28:57;;;;;;;19.17;16.03;;;20.80;99.90;;;;;;4998471;28;20427;-66
2022/09/14 05:31:24;;;;;;;19.70;17.30;;;20.70;99.90;;;;;;4995851;28;20464;-66
2022/09/14 05:33:50;;;;;;;21.60;16.93;;;20.60;99.90;;;;;;5002065;28;20963;-66
2022/09/14 05:36:17;;;;;;;21.40;18.67;;;20.60;99.90;;;;;;5001042;28;20435;-65
2022/09/14 05:38:42;;;;;;;24.43;16.80;;;20.60;99.90;;;;;;4997906;28;20795;-66
2022/09/14 05:41:11;;;;;;;24.27;17.00;;;20.60;99.90;;;;;;4999346;28;21102;-66
2022/09/14 05:43:37;;;;;;;22.57;18.40;;;20.50;99.90;;;;;;4999580;28;20185;-66
2022/09/14 05:46:05;;;;;;;19.33;17.07;;;20.60;99.90;;;;;;4997689;28;21198;-66
2022/09/14 05:48:32;;;;;;;27.27;18.57;;;20.60;99.90;;;;;;4995527;28;20524;-66
2022/09/14 05:50:59;;;;;;;20.83;17.90;;;20.70;99.90;;;;;;4999385;28;20426;-66
2022/09/14 05:53:25;;;;;;;22.10;16.53;;;20.60;99.90;;;;;;4994906;28;20443;-66
2022/09/14 05:56:04;;;;;;;18.07;16.17;;;20.70;99.90;;;;;;4999774;28;20467;-66
2022/09/14 05:58:31;;;;;;;19.57;17.43;;;20.70;99.90;;;;;;4997638;28;20458;-67
2022/09/14 06:00:57;;;;;;;22.50;17.30;;;20.70;99.90;;;;;;4995606;28;20468;-66
2022/09/14 06:03:23;;;;;;;23.53;19.07;;;20.50;99.90;;;;;;5001621;28;20429;-67
2022/09/14 06:05:49;;;;;;;18.97;16.13;;;20.50;99.90;;;;;;4997150;28;20546;-67
2022/09/14 06:08:14;;;;;;;18.70;15.90;;;20.50;99.90;;;;;;5000308;28;20512;-66
2022/09/14 06:10:40;;;;;;;20.33;15.23;;;20.60;99.90;;;;;;4998022;28;20181;-66
2022/09/14 06:13:06;;;;;;;17.53;15.30;;;20.60;99.90;;;;;;4983138;28;20174;-66
2022/09/14 06:15:33;;;;;;;16.00;14.30;;;20.50;99.90;;;;;;4997039;28;20463;-66
2022/09/14 06:17:59;;;;;;;17.57;14.37;;;20.50;99.90;;;;;;4998564;28;20216;-66
2022/09/14 06:20:25;;;;;;;16.27;14.53;;;20.50;99.90;;;;;;4997016;28;20817;-66
2022/09/14 06:22:50;;;;;;;19.80;15.87;;;20.60;99.90;;;;;;4999763;28;20428;-66
2022/09/14 06:25:16;;;;;;;18.53;15.57;;;20.60;99.90;;;;;;4994170;28;20748;-66
2022/09/14 06:27:42;;;;;;;18.33;15.80;;;20.50;99.90;;;;;;4999499;28;20585;-66
2022/09/14 06:30:08;;;;;;;20.83;15.70;;;20.50;99.90;;;;;;5001234;28;21062;-66
2022/09/14 06:32:33;;;;;;;17.23;15.00;;;20.50;99.90;;;;;;4993537;28;20185;-66
2022/09/14 06:34:59;;;;;;;18.33;15.83;;;20.50;99.90;;;;;;4995923;28;21035;-66
2022/09/14 06:37:25;;;;;;;17.73;15.63;;;20.50;99.90;;;;;;5000081;28;20197;-66
2022/09/14 06:39:50;;;;;;;18.60;14.57;;;20.60;99.90;;;;;;4997059;28;20566;-66
2022/09/14 06:42:16;;;;;;;15.40;13.70;;;20.70;99.90;;;;;;4995542;28;20231;-66
2022/09/14 06:44:41;;;;;;;16.93;14.93;;;20.70;99.90;;;;;;4999305;28;20204;-66
2022/09/14 06:47:07;;;;;;;17.23;15.40;;;20.70;99.90;;;;;;4999377;28;20181;-66
2022/09/14 06:49:32;;;;;;;17.30;14.93;;;20.70;99.90;;;;;;4998037;28;20192;-66
2022/09/14 06:51:59;;;;;;;16.93;15.13;;;20.70;99.90;;;;;;4996132;28;20548;-66
2022/09/14 06:54:25;;;;;;;19.77;15.70;;;20.60;99.90;;;;;;4997615;28;20562;-67
2022/09/14 06:56:51;;;;;;;18.17;15.77;;;20.70;99.90;;;;;;4996225;28;20511;-66
2022/09/14 06:59:17;;;;;;;16.00;14.33;;;20.70;99.90;;;;;;4996908;28;20288;-66
2022/09/14 07:01:48;;;;;;;18.10;16.30;;;20.70;99.90;;;;;;4998495;28;20462;-68
2022/09/14 07:04:14;;;;;;;17.43;15.60;;;20.70;99.90;;;;;;4994342;28;20312;-66
2022/09/14 07:06:45;;;;;;;20.60;18.13;;;20.70;99.90;;;;;;4995609;28;20528;-66
2022/09/14 07:09:11;;;;;;;17.70;14.97;;;20.70;99.90;;;;;;4998722;28;20184;-67
2022/09/14 07:11:37;;;;;;;20.13;17.93;;;20.70;99.90;;;;;;4997803;28;20441;-67
2022/09/14 07:14:04;;;;;;;18.43;16.50;;;20.90;99.90;;;;;;4994720;28;20417;-66
2022/09/14 07:16:31;;;;;;;18.80;16.90;;;21.00;99.90;;;;;;4994203;28;20437;-66
2022/09/14 07:18:59;;;;;;;18.80;16.80;;;21.00;99.90;;;;;;4999529;28;20480;-66
2022/09/14 07:21:25;;;;;;;19.20;16.60;;;21.00;99.90;;;;;;4981462;28;20413;-66
2022/09/14 07:23:51;;;;;;;19.77;17.53;;;20.80;99.90;;;;;;4996282;28;20469;-66
2022/09/14 07:26:41;;;;;;;21.27;17.97;;;20.90;99.90;;;;;;4995354;28;20590;-66
2022/09/14 07:29:11;;;;;;;21.00;16.57;;;21.10;99.90;;;;;;4995987;28;20173;-67
2022/09/14 07:31:38;;;;;;;21.23;18.10;;;21.20;99.90;;;;;;4998806;28;20733;-67
2022/09/14 07:34:05;;;;;;;20.67;18.50;;;21.30;99.90;;;;;;4998930;28;20559;-67
2022/09/14 07:36:33;;;;;;;22.50;20.20;;;21.30;99.90;;;;;;4996295;28;20444;-66
2022/09/14 07:38:58;;;;;;;20.73;16.80;;;21.30;99.90;;;;;;4997681;28;20960;-66
2022/09/14 07:41:26;;;;;;;18.13;15.70;;;21.40;99.90;;;;;;4997822;28;20424;-66
2022/09/14 07:43:59;;;;;;;19.57;15.10;;;21.40;99.90;;;;;;4979502;28;20188;-66
2022/09/14 07:46:25;;;;;;;19.00;16.20;;;21.40;99.90;;;;;;4996317;28;20460;-66
2022/09/14 07:48:56;;;;;;;19.43;15.73;;;21.40;99.90;;;;;;4996387;28;20420;-66
2022/09/14 07:51:23;;;;;;;19.13;15.43;;;21.40;99.90;;;;;;4993432;28;20424;-66
2022/09/14 07:53:48;;;;;;;21.13;15.67;;;21.20;99.90;;;;;;4996447;28;20475;-65
2022/09/14 07:56:15;;;;;;;17.93;16.03;;;21.10;99.90;;;;;;4996063;28;20471;-65
2022/09/14 07:58:41;;;;;;;19.70;16.00;;;21.10;99.90;;;;;;4998653;28;20184;-68
2022/09/14 08:01:13;;;;;;;16.43;14.50;;;21.20;99.90;;;;;;4996753;28;20443;-67
2022/09/14 08:03:40;;;;;;;16.90;15.20;;;21.40;99.90;;;;;;4998944;28;20782;-66
2022/09/14 08:06:18;;;;;;;16.00;14.00;;;21.40;99.90;;;;;;4994517;28;20926;-66
2022/09/14 08:08:46;;;;;;;15.77;13.50;;;21.50;99.90;;;;;;4998448;28;20431;-67
2022/09/14 08:11:15;;;;;;;15.50;13.83;;;21.80;99.90;;;;;;4999638;28;20431;-67
2022/09/14 08:13:50;;;;;;;14.83;13.33;;;21.80;99.90;;;;;;4995056;28;20800;-67
2022/09/14 08:16:17;;;;;;;14.10;12.33;;;21.70;99.90;;;;;;4997762;28;20465;-67
2022/09/14 08:18:44;;;;;;;16.17;13.17;;;21.70;99.90;;;;;;4994617;28;20940;-66
2022/09/14 08:21:15;;;;;;;16.43;13.30;;;21.70;99.90;;;;;;4996076;28;20439;-66
2022/09/14 08:23:41;;;;;;;13.27;11.87;;;21.70;99.90;;;;;;4996646;28;20435;-67
2022/09/14 08:26:12;;;;;;;13.00;10.87;;;21.80;99.90;;;;;;4992649;28;20818;-67
2022/09/14 08:28:39;;;;;;;13.57;11.00;;;21.90;99.90;;;;;;4999554;28;20422;-65
2022/09/14 08:31:10;;;;;;;12.07;10.90;;;22.00;99.90;;;;;;4987914;28;20415;-65
2022/09/14 08:33:38;;;;;;;12.03;10.73;;;22.10;99.90;;;;;;5000252;28;20412;-66
2022/09/14 08:36:06;;;;;;;10.50;9.40;;;22.30;99.90;;;;;;5001820;28;20545;-66
2022/09/14 08:38:31;;;;;;;12.43;9.30;;;22.40;99.90;;;;;;5000838;28;20865;-66
2022/09/14 08:41:14;;;;;;;9.50;8.40;;;22.50;99.90;;;;;;5000729;28;20681;-66
2022/09/14 08:43:40;;;;;;;11.93;8.37;;;22.60;99.90;;;;;;4999374;28;20309;-65
2022/09/14 08:46:13;;;;;;;8.03;7.10;;;22.70;99.90;;;;;;4999275;28;20452;-66
2022/09/14 08:48:46;;;;;;;7.97;7.10;;;22.80;99.90;;;;;;5001924;28;20715;-66
2022/09/14 08:51:11;;;;;;;8.00;6.87;;;22.90;99.90;;;;;;4996577;28;20700;-66
2022/09/14 08:53:39;;;;;;;8.60;6.43;;;22.90;99.90;;;;;;4997002;28;20478;-66
2022/09/14 08:56:12;;;;;;;8.13;6.37;;;23.00;99.90;;;;;;4995947;28;20211;-68
2022/09/14 08:59:04;;;;;;;8.23;6.63;;;23.10;99.90;;;;;;5001932;28;20452;-66
2022/09/14 09:01:42;;;;;;;6.87;6.27;;;23.00;99.90;;;;;;4998095;28;20474;-66
2022/09/14 09:04:23;;;;;;;7.43;6.60;;;23.10;99.90;;;;;;4998884;28;20433;-66
2022/09/14 09:06:52;;;;;;;7.57;6.77;;;23.10;99.90;;;;;;4997253;28;20507;-66
2022/09/14 09:09:30;;;;;;;6.40;5.80;;;23.10;99.90;;;;;;5000559;28;20424;-67
2022/09/14 09:11:56;;;;;;;8.37;6.63;;;23.10;99.90;;;;;;5001345;28;20818;-66
2022/09/14 09:14:35;;;;;;;7.40;6.60;;;23.20;99.90;;;;;;5000202;28;20454;-66
2022/09/14 09:17:10;;;;;;;9.83;6.60;;;23.30;99.90;;;;;;4998886;28;20427;-66
2022/09/14 09:20:06;;;;;;;12.40;7.17;;;23.40;99.90;;;;;;5002925;28;20845;-66
2022/09/14 09:22:50;;;;;;;7.47;6.63;;;23.50;99.90;;;;;;5000159;28;20475;-66
2022/09/14 09:25:23;;;;;;;8.70;5.60;;;23.50;99.90;;;;;;4997019;28;20447;-66
2022/09/14 09:27:50;;;;;;;8.50;6.20;;;23.50;99.90;;;;;;4996321;28;20439;-66
2022/09/14 09:30:16;;;;;;;13.83;6.87;;;23.60;99.90;;;;;;5001995;28;20538;-66
2022/09/14 09:32:42;;;;;;;10.57;6.60;;;23.70;99.90;;;;;;5000295;28;20428;-66
2022/09/14 09:35:14;;;;;;;6.97;5.70;;;23.70;99.90;;;;;;4999896;28;20440;-65
2022/09/14 09:37:40;;;;;;;8.53;6.50;;;23.80;99.90;;;;;;4998733;28;20523;-66
2022/09/14 09:40:24;;;;;;;12.03;6.30;;;23.90;99.90;;;;;;5001115;28;20826;-66
2022/09/14 09:43:07;;;;;;;8.97;5.37;;;24.00;99.90;;;;;;4997389;28;20195;-66
2022/09/14 09:45:45;;;;;;;8.57;5.17;;;24.10;99.90;;;;;;5003008;28;20519;-66
2022/09/14 09:48:13;;;;;;;5.50;5.00;;;24.30;99.90;;;;;;4997918;28;20420;-66
2022/09/14 09:51:18;;;;;;;5.40;4.90;;;24.40;99.90;;;;;;4995591;28;20447;-66
2022/09/14 09:53:47;;;;;;;8.03;4.50;;;24.50;99.90;;;;;;4967907;28;21001;-66
2022/09/14 09:56:22;;;;;;;6.47;4.00;;;24.40;99.90;;;;;;4996590;28;20867;-65
2022/09/14 09:58:50;;;;;;;5.27;4.27;;;24.50;99.90;;;;;;4997815;28;20509;-67
2022/09/14 10:01:31;;;;;;;6.90;4.40;;;24.50;99.90;;;;;;4980380;28;20527;-66
2022/09/14 10:04:02;;;;;;;6.67;4.67;;;24.60;99.90;;;;;;4987899;28;20512;-66
2022/09/14 10:06:29;;;;;;;8.73;4.10;;;24.70;99.90;;;;;;4980380;28;20456;-66
2022/09/14 10:08:56;;;;;;;7.30;4.53;;;24.70;99.90;;;;;;4999921;28;20926;-66
2022/09/14 10:11:36;;;;;;;5.93;4.10;;;24.70;99.90;;;;;;4999553;28;20451;-66
2022/09/14 10:14:21;;;;;;;8.37;4.43;;;24.80;99.90;;;;;;4998175;28;20428;-66
2022/09/14 10:16:46;;;;;;;4.20;3.80;;;24.90;99.90;;;;;;4998632;28;20447;-66
2022/09/14 10:19:21;;;;;;;8.80;4.53;;;24.90;99.90;;;;;;4997956;28;20472;-67
2022/09/14 10:22:15;;;;;;;5.90;3.90;;;25.00;99.90;;;;;;4999956;28;20185;-66
2022/09/14 10:24:56;;;;;;;4.87;4.37;;;25.00;99.90;;;;;;4999397;28;20471;-66
2022/09/14 10:27:40;;;;;;;4.50;3.90;;;25.10;99.90;;;;;;5001707;28;20413;-66
2022/09/14 10:30:14;;;;;;;5.90;4.53;;;25.20;99.90;;;;;;4999461;28;20490;-66
2022/09/14 10:32:44;;;;;;;6.07;4.03;;;25.20;99.90;;;;;;4998735;28;20424;-66
2022/09/14 10:35:14;;;;;;;6.10;3.60;;;25.30;99.90;;;;;;4994847;28;20470;-66
2022/09/14 10:38:09;;;;;;;5.43;4.17;;;25.40;99.90;;;;;;4996755;28;20441;-66
2022/09/14 10:40:38;;;;;;;4.90;3.80;;;25.50;99.90;;;;;;4990605;28;20992;-67
2022/09/14 10:43:06;;;;;;;7.97;4.73;;;25.60;99.90;;;;;;4998623;28;20419;-66
2022/09/14 10:45:44;;;;;;;5.60;3.70;;;25.70;99.90;;;;;;5000186;28;20447;-66
2022/09/14 10:48:12;;;;;;;6.60;3.83;;;25.70;99.90;;;;;;4998630;28;20867;-66
2022/09/14 10:51:07;;;;;;;6.33;4.90;;;25.60;99.90;;;;;;4996835;28;20948;-66
2022/09/14 10:53:43;;;;;;;7.27;4.20;;;25.60;99.90;;;;;;4994206;28;20760;-65
2022/09/14 10:56:48;;;;;;;6.07;4.50;;;25.70;99.90;;;;;;4999000;28;20648;-66
2022/09/14 10:59:51;;;;;;;6.13;4.00;;;25.70;99.90;;;;;;4976716;28;20476;-66
2022/09/14 11:02:31;;;;;;;8.17;4.17;;;25.80;99.90;;;;;;4997066;28;20423;-65
2022/09/14 11:05:11;;;;;;;7.13;3.53;;;26.00;99.90;;;;;;4998874;28;20636;-66
2022/09/14 11:08:08;;;;;;;8.97;4.83;;;26.10;99.90;;;;;;4985303;28;20423;-66
2022/09/14 11:10:54;;;;;;;5.50;4.37;;;26.30;99.90;;;;;;4980155;28;20436;-66
2022/09/14 11:13:37;;;;;;;11.73;4.27;;;26.30;99.90;;;;;;4978535;28;20444;-66
2022/09/14 11:16:14;;;;;;;5.57;3.90;;;26.30;99.90;;;;;;4992773;28;20456;-66
2022/09/14 11:19:17;;;;;;;3.90;3.37;;;26.40;99.90;;;;;;4996271;28;20424;-66
2022/09/14 11:21:55;;;;;;;7.10;4.07;;;26.50;99.90;;;;;;4997214;28;20503;-66
2022/09/14 11:24:23;;;;;;;8.13;4.50;;;26.40;99.90;;;;;;4997445;28;20569;-66
2022/09/14 11:26:57;;;;;;;4.47;3.80;;;26.50;99.90;;;;;;4998445;28;20781;-66
2022/09/14 11:29:43;;;;;;;5.10;3.80;;;26.60;99.90;;;;;;4999868;28;20409;-66
2022/09/14 11:32:17;;;;;;;4.50;3.57;;;26.70;99.90;;;;;;4994395;28;20441;-66
2022/09/14 11:35:11;;;;;;;6.53;3.80;;;26.60;99.90;;;;;;4996211;28;20486;-66
2022/09/14 11:37:59;;;;;;;5.63;3.70;;;26.70;99.90;;;;;;4998373;28;20427;-66
2022/09/14 11:40:50;;;;;;;6.83;3.50;;;26.80;99.90;;;;;;4996507;28;20463;-66
2022/09/14 11:43:18;;;;;;;4.70;4.20;;;26.80;99.90;;;;;;4978188;28;20531;-67
2022/09/14 11:46:13;;;;;;;5.70;3.83;;;26.70;99.90;;;;;;4996503;28;20436;-66
2022/09/14 11:48:57;;;;;;;4.63;3.57;;;26.70;99.90;;;;;;4992082;28;21097;-66
2022/09/14 11:51:28;;;;;;;4.40;3.70;;;26.70;99.90;;;;;;4994898;28;20786;-66
2022/09/14 11:53:54;;;;;;;9.67;3.37;;;26.60;99.90;;;;;;4995651;28;20443;-66
2022/09/14 11:56:32;;;;;;;7.60;4.07;;;26.60;99.90;;;;;;4994851;28;20420;-66
2022/09/14 11:59:02;;;;;;;5.60;3.10;;;26.50;99.90;;;;;;4994258;28;20180;-66
2022/09/14 12:01:31;;;;;;;5.50;3.60;;;26.50;99.90;;;;;;4997175;28;20444;-66
2022/09/14 12:04:00;;;;;;;5.40;3.40;;;26.40;99.90;;;;;;4996055;28;20432;-68
2022/09/14 12:06:34;;;;;;;5.40;3.43;;;26.30;99.90;;;;;;4996309;28;20425;-66
2022/09/14 12:09:24;;;;;;;4.30;3.20;;;26.30;99.90;;;;;;4996506;28;20481;-66
2022/09/14 12:11:53;;;;;;;4.70;3.43;;;26.20;99.90;;;;;;4996246;28;20508;-66
2022/09/14 12:14:26;;;;;;;6.50;3.50;;;26.20;99.90;;;;;;4994854;28;20608;-67
2022/09/14 12:17:22;;;;;;;4.93;3.70;;;26.20;99.90;;;;;;4977404;28;20438;-67
2022/09/14 12:19:54;;;;;;;8.30;6.93;;;26.10;99.90;;;;;;4983635;28;20483;-66
2022/09/14 12:22:38;;;;;;;5.47;4.87;;;26.10;99.90;;;;;;4994651;28;20435;-67
2022/09/14 12:25:17;;;;;;;9.40;4.30;;;26.00;99.90;;;;;;4996104;28;20432;-67
2022/09/14 12:27:44;;;;;;;6.23;3.60;;;25.90;99.90;;;;;;4996855;28;20498;-66
2022/09/14 12:30:34;;;;;;;9.50;3.80;;;25.70;99.90;;;;;;4979151;28;20964;-65
2022/09/14 12:33:01;;;;;;;5.73;4.37;;;25.50;99.90;;;;;;4994982;28;20539;-65
2022/09/14 12:35:39;;;;;;;4.90;2.80;;;25.20;99.90;;;;;;4993561;28;20983;-65
2022/09/14 12:38:29;;;;;;;7.40;2.20;;;24.50;99.90;;;;;;4999783;28;20419;-67
2022/09/14 12:41:11;;;;;;;5.30;2.00;;;23.30;99.90;;;;;;4996808;28;21461;-67
2022/09/14 12:43:49;;;;;;;8.27;2.90;;;22.30;99.90;;;;;;4999122;28;20428;-68
2022/09/14 12:46:21;;;;;;;6.03;2.53;;;21.50;99.90;;;;;;4994614;28;20559;-68
2022/09/14 12:51:33;;;;;;;4.50;2.40;;;20.60;99.90;;;;;;4996796;28;20539;-68
2022/09/14 12:54:08;;;;;;;2.50;1.80;;;20.50;99.90;;;;;;4996025;28;20179;-68
2022/09/14 12:56:41;;;;;;;3.50;1.90;;;20.10;99.90;;;;;;4995925;28;20788;-68
2022/09/14 12:59:35;;;;;;;2.77;2.30;;;20.00;99.90;;;;;;4992615;28;20439;-68
2022/09/14 13:02:09;;;;;;;4.70;2.23;;;19.90;99.90;;;;;;4998079;28;20424;-69